Time;durP1;ratioP1;P1;durP2;ratioP2;P2;SDS_P1;SDS_P2;PMS_P1;PMS_P2;Temp;Humidity;BMP_temperature;BMP_pressure;BME280_temperature;BME280_humidity;BME280_pressure;Samples;Min_cycle;Max_cycle;Signal;HPM_P1;HPM_P2
2023/07/03 00:00:42;;;;;;;;;;;;;;;-140.72;100.00;52532.91;4993674;28;20351;-70
2023/07/03 00:03:07;;;;;;;;;;;;;;;-140.72;100.00;52547.09;4971953;28;20036;-70
2023/07/03 00:05:34;;;;;;;;;;;;;;;-140.72;100.00;52512.59;4974547;28;19918;-70
2023/07/03 00:07:59;;;;;;;;;;;;;;;-140.72;100.00;52561.31;4988109;28;19961;-70
2023/07/03 00:10:25;;;;;;;;;;;;;;;-140.72;100.00;52520.72;4984906;28;19965;-70
2023/07/03 00:12:50;;;;;;;;;;;;;;;-140.72;100.00;52541.03;4971190;28;19922;-70
2023/07/03 00:15:15;;;;;;;;;;;;;;;-140.72;100.00;52545.06;4994436;28;19928;-70
2023/07/03 00:17:44;;;;;;;;;;;;;;;-140.72;100.00;52567.41;4992538;28;19922;-70
2023/07/03 00:20:13;;;;;;;;;;;;;;;-140.72;100.00;52589.72;4984378;28;20000;-70
2023/07/03 00:22:38;;;;;;;;;;;;;;;-140.72;100.00;52551.16;4993196;28;19940;-70
2023/07/03 00:25:04;;;;;;;;;;;;;;;-140.72;100.00;52561.31;4986018;28;19929;-70
2023/07/03 00:27:29;;;;;;;;;;;;;;;-140.72;100.00;52541.03;4979694;28;19922;-69
2023/07/03 00:29:54;;;;;;;;;;;;;;;-140.72;100.00;52510.59;4992848;28;19918;-70
2023/07/03 00:32:22;;;;;;;;;;;;;;;-140.72;100.00;52545.06;4984514;28;19924;-69
2023/07/03 00:34:47;;;;;;;;;;;;;;;-140.72;100.00;52545.06;4989068;28;19925;-69
2023/07/03 00:37:14;;;;;;;;;;;;;;;-140.72;100.00;52545.06;4984648;28;19931;-69
2023/07/03 00:39:39;;;;;;;;;;;;;;;-140.72;100.00;52516.66;4991722;28;20411;-70
2023/07/03 00:42:05;;;;;;;;;;;;;;;-140.72;100.00;52557.25;4971739;28;19922;-69
2023/07/03 00:44:30;;;;;;;;;;;;;;;-140.72;100.00;52539.00;4980144;28;19924;-70
2023/07/03 00:46:55;;;;;;;;;;;;;;;-140.72;100.00;52541.03;4993120;28;20025;-70
2023/07/03 00:49:21;;;;;;;;;;;;;;;-140.72;100.00;52536.97;4980911;28;19944;-70
2023/07/03 00:51:51;;;;;;;;;;;;;;;-140.72;100.00;52573.50;4993463;28;19918;-70
2023/07/03 00:54:17;;;;;;;;;;;;;;;-140.72;100.00;52549.13;4993285;28;19918;-70
2023/07/03 00:56:42;;;;;;;;;;;;;;;-140.72;100.00;52545.06;4992480;28;19924;-70
2023/07/03 00:59:07;;;;;;;;;;;;;;;-140.72;100.00;52563.34;4991244;28;19922;-70
2023/07/03 01:01:37;;;;;;;;;;;;;;;-140.72;100.00;52553.19;4993995;28;20004;-70
2023/07/03 01:04:35;;;;;;;;;;;;;;;-140.72;100.00;52532.91;4986905;28;19944;-70
2023/07/03 01:07:02;;;;;;;;;;;;;;;-140.72;100.00;52524.78;4953010;28;20437;-70
2023/07/03 01:09:31;;;;;;;;;;;;;;;-140.72;100.00;52547.09;4995938;28;20315;-70
2023/07/03 01:11:57;;;;;;;;;;;;;;;-140.72;100.00;52526.81;4959306;28;19918;-69
2023/07/03 01:14:23;;;;;;;;;;;;;;;-140.72;100.00;52510.59;4989197;28;19925;-69
2023/07/03 01:16:49;;;;;;;;;;;;;;;-140.72;100.00;52536.97;4987477;28;20400;-69
2023/07/03 01:19:18;;;;;;;;;;;;;;;-140.72;100.00;52536.97;4977013;28;20103;-70
2023/07/03 01:21:47;;;;;;;;;;;;;;;-140.72;100.00;52510.59;4984053;28;19964;-70
2023/07/03 01:24:14;;;;;;;;;;;;;;;-140.72;100.00;52567.41;4994319;28;19918;-69
2023/07/03 01:26:41;;;;;;;;;;;;;;;-140.72;100.00;52534.94;4984426;28;19925;-70
2023/07/03 01:29:07;;;;;;;;;;;;;;;-140.72;100.00;52551.16;4995273;28;19921;-70
2023/07/03 01:31:35;;;;;;;;;;;;;;;-140.72;100.00;52551.16;4995756;28;20391;-69
2023/07/03 01:34:01;;;;;;;;;;;;;;;-140.72;100.00;52561.31;4995416;28;19918;-69
2023/07/03 01:36:28;;;;;;;;;;;;;;;-140.72;100.00;52541.03;4993696;28;19918;-69
2023/07/03 01:38:53;;;;;;;;;;;;;;;-140.72;100.00;52541.03;4984654;28;20037;-69
2023/07/03 01:41:19;;;;;;;;;;;;;;;-140.72;100.00;52516.66;4988449;28;20274;-69
2023/07/03 01:43:45;;;;;;;;;;;;;;;-140.72;100.00;52565.38;4976383;28;19918;-70
2023/07/03 01:46:11;;;;;;;;;;;;;;;-140.72;100.00;52518.69;4988638;28;19922;-70
2023/07/03 01:48:36;;;;;;;;;;;;;;;-140.72;100.00;52553.19;4977858;28;20435;-70
2023/07/03 01:51:03;;;;;;;;;;;;;;;-140.72;100.00;52547.09;4986357;28;19998;-70
2023/07/03 01:53:37;;;;;;;;;;;;;;;-140.72;100.00;52543.03;4990654;28;19918;-70
2023/07/03 01:56:11;;;;;;;;;;;;;;;-140.72;100.00;52524.78;4988747;28;19926;-70
2023/07/03 01:58:36;;;;;;;;;;;;;;;-140.72;100.00;52551.16;4975623;28;20025;-70
2023/07/03 02:01:04;;;;;;;;;;;;;;;-140.72;100.00;52551.16;4994900;28;19925;-70
2023/07/03 02:03:32;;;;;;;;;;;;;;;-140.72;100.00;52524.78;4977899;28;20336;-70
2023/07/03 02:06:00;;;;;;;;;;;;;;;-140.72;100.00;52536.97;4995144;28;19957;-70
2023/07/03 02:08:27;;;;;;;;;;;;;;;-140.72;100.00;52520.72;4973722;28;20289;-70
2023/07/03 02:10:53;;;;;;;;;;;;;;;-140.72;100.00;52569.44;4977231;28;19922;-70
2023/07/03 02:13:18;;;;;;;;;;;;;;;-140.72;100.00;52551.16;4995172;28;19924;-70
2023/07/03 02:15:43;;;;;;;;;;;;;;;-140.72;100.00;52557.25;4995557;28;19918;-70
2023/07/03 02:18:09;;;;;;;;;;;;;;;-140.72;100.00;52524.78;4994331;28;19926;-70
2023/07/03 02:20:36;;;;;;;;;;;;;;;-140.72;100.00;52526.81;4983799;28;19919;-70
2023/07/03 02:23:01;;;;;;;;;;;;;;;-140.72;51.82;52536.97;5005024;28;20406;-70
2023/07/03 02:25:27;;;;;;;;;;;;;;;-140.72;10.81;52522.75;4987786;28;19941;-70
2023/07/03 02:27:52;;;;;;;;;;;;;;;-140.72;0.00;52539.00;4973284;28;20421;-70
2023/07/03 02:30:17;;;;;;;;;;;;;;;-140.72;0.00;52559.28;4988910;28;20419;-70
2023/07/03 02:32:43;;;;;;;;;;;;;;;-140.72;0.00;52557.25;4976991;28;20249;-70
2023/07/03 02:35:09;;;;;;;;;;;;;;;-140.72;0.00;52547.09;4990447;28;19922;-71
2023/07/03 02:37:34;;;;;;;;;;;;;;;-140.72;0.00;52553.19;4989867;28;19918;-70
2023/07/03 02:39:59;;;;;;;;;;;;;;;-140.72;0.00;52545.06;4995336;28;19985;-71
2023/07/03 02:42:28;;;;;;;;;;;;;;;-140.72;0.00;52516.66;4993048;28;19925;-70
2023/07/03 02:44:53;;;;;;;;;;;;;;;-140.72;0.00;52536.97;4989953;28;19918;-70
2023/07/03 02:47:18;;;;;;;;;;;;;;;-140.72;0.00;52547.09;4984123;28;19922;-70
2023/07/03 02:49:43;;;;;;;;;;;;;;;-140.72;0.00;52534.94;4980682;28;19957;-70
2023/07/03 02:52:09;;;;;;;;;;;;;;;-140.72;0.00;52551.16;4994120;28;20012;-70
2023/07/03 02:54:34;;;;;;;;;;;;;;;-140.72;0.00;52528.84;4986830;28;20001;-71
2023/07/03 02:56:59;;;;;;;;;;;;;;;-140.72;0.00;52541.03;4991081;28;19922;-70
2023/07/03 02:59:25;;;;;;;;;;;;;;;-140.72;0.00;52559.28;4988839;28;19918;-71
2023/07/03 03:01:50;;;;;;;;;;;;;;;-140.72;0.00;52561.31;4977013;28;19929;-70
2023/07/03 03:04:16;;;;;;;;;;;;;;;-140.72;0.00;52555.22;4993675;28;19981;-70
2023/07/03 03:06:42;;;;;;;;;;;;;;;-140.72;0.00;52510.59;4976185;28;19926;-70
2023/07/03 03:09:08;;;;;;;;;;;;;;;-140.72;0.00;52536.97;4990051;28;19925;-71
2023/07/03 03:11:34;;;;;;;;;;;;;;;-140.72;0.00;52520.72;4989962;28;19925;-70
2023/07/03 03:13:59;;;;;;;;;;;;;;;-140.72;0.00;52526.81;4982368;28;20009;-70
2023/07/03 03:16:24;;;;;;;;;;;;;;;-140.72;0.00;52565.38;4976679;28;19925;-70
2023/07/03 03:18:50;;;;;;;;;;;;;;;-140.72;0.00;52522.75;4991100;28;19960;-70
2023/07/03 03:21:15;;;;;;;;;;;;;;;-140.72;0.00;52561.31;4994044;28;20045;-70
2023/07/03 03:23:41;;;;;;;;;;;;;;;-140.72;0.00;52504.50;4990337;28;20395;-70
2023/07/03 03:26:06;;;;;;;;;;;;;;;-140.72;0.00;52530.88;4992696;28;19921;-70
2023/07/03 03:28:32;;;;;;;;;;;;;;;-140.72;0.00;52536.97;4990267;28;19918;-70
2023/07/03 03:30:57;;;;;;;;;;;;;;;-140.72;0.00;52539.00;4991679;28;19917;-70
2023/07/03 03:33:22;;;;;;;;;;;;;;;-140.72;0.00;52555.22;4993650;28;20368;-71
2023/07/03 03:35:48;;;;;;;;;;;;;;;-140.72;0.00;52551.16;4989186;28;19929;-70
2023/07/03 03:38:13;;;;;;;;;;;;;;;-140.72;0.00;52528.84;4986455;28;20276;-70
2023/07/03 03:40:38;;;;;;;;;;;;;;;-140.72;0.00;52547.09;4991003;28;19925;-70
2023/07/03 03:43:05;;;;;;;;;;;;;;;-140.72;0.00;52492.31;4985879;28;19918;-70
2023/07/03 03:45:30;;;;;;;;;;;;;;;-140.72;0.00;52522.75;4993083;28;19925;-70
2023/07/03 03:47:55;;;;;;;;;;;;;;;-140.72;0.00;52530.88;4990546;28;19918;-70
2023/07/03 03:50:20;;;;;;;;;;;;;;;-140.72;0.00;52504.50;4991335;28;20386;-70
2023/07/03 03:52:46;;;;;;;;;;;;;;;-140.72;0.00;52565.38;4992885;28;19964;-70
2023/07/03 03:55:11;;;;;;;;;;;;;;;-140.72;0.00;52506.53;4992695;28;20369;-70
2023/07/03 03:57:36;;;;;;;;;;;;;;;-140.72;0.00;52508.56;4984432;28;19925;-70
2023/07/03 04:00:03;;;;;;;;;;;;;;;-140.72;0.00;52530.88;4985583;28;19953;-70
2023/07/03 04:02:30;;;;;;;;;;;;;;;-140.72;0.00;52508.56;4986349;28;20256;-70
2023/07/03 04:04:55;;;;;;;;;;;;;;;-140.72;0.00;52528.84;4992564;28;19918;-70
2023/07/03 04:07:20;;;;;;;;;;;;;;;-140.72;0.00;52565.38;4984093;28;19922;-71
2023/07/03 04:09:46;;;;;;;;;;;;;;;-140.72;0.00;52573.50;4987970;28;20438;-74
2023/07/03 04:12:11;;;;;;;;;;;;;;;-140.72;0.00;52539.00;4974748;28;19953;-75
2023/07/03 04:14:38;;;;;;;;;;;;;;;-140.72;0.00;52539.00;4983211;28;19922;-75
2023/07/03 04:17:12;;;;;;;;;;;;;;;-140.72;0.00;52541.03;4991765;28;19918;-72
2023/07/03 04:19:37;;;;;;;;;;;;;;;-140.72;0.00;52510.59;4995960;28;20391;-72
2023/07/03 04:22:03;;;;;;;;;;;;;;;-140.72;0.00;52541.03;4987091;28;19921;-72
2023/07/03 04:24:28;;;;;;;;;;;;;;;-140.72;0.00;52504.50;4975279;28;20016;-72
2023/07/03 04:26:54;;;;;;;;;;;;;;;-140.72;0.00;52557.25;4994717;28;19932;-72
2023/07/03 04:29:19;;;;;;;;;;;;;;;-140.72;0.00;52484.19;4989950;28;20076;-71
2023/07/03 04:31:44;;;;;;;;;;;;;;;-140.72;0.00;52573.50;4995935;28;19922;-71
2023/07/03 04:34:10;;;;;;;;;;;;;;;-140.72;0.00;52534.94;4988517;28;21363;-72
2023/07/03 04:36:35;;;;;;;;;;;;;;;-140.72;0.00;52516.66;4991014;28;19921;-72
2023/07/03 04:39:00;;;;;;;;;;;;;;;-140.72;0.00;52549.13;4995920;28;19973;-72
2023/07/03 04:41:29;;;;;;;;;;;;;;;-140.72;0.00;52522.75;4984834;28;19925;-72
2023/07/03 04:43:57;;;;;;;;;;;;;;;-140.72;0.00;52524.78;4983768;28;19918;-72
2023/07/03 04:46:25;;;;;;;;;;;;;;;-140.72;0.00;52520.72;4995237;28;19917;-73
2023/07/03 04:48:50;;;;;;;;;;;;;;;-140.72;0.00;52545.06;4978567;28;20013;-72
2023/07/03 04:51:15;;;;;;;;;;;;;;;-140.72;0.00;52500.44;4982592;28;20380;-72
2023/07/03 04:53:41;;;;;;;;;;;;;;;-140.72;0.00;52534.94;4992573;28;20436;-72
2023/07/03 04:56:07;;;;;;;;;;;;;;;-140.72;0.00;52534.94;4996216;28;19944;-74
2023/07/03 04:58:32;;;;;;;;;;;;;;;-140.72;0.00;52549.13;4994467;28;19925;-73
2023/07/03 05:01:11;;;;;;;;;;;;;;;-140.72;0.00;52528.84;4987176;28;20283;-74
2023/07/03 05:03:37;;;;;;;;;;;;;;;-140.72;0.00;52536.97;4983080;28;20012;-73
2023/07/03 05:06:02;;;;;;;;;;;;;;;-140.72;0.00;52555.22;4995826;28;20436;-74
2023/07/03 05:08:27;;;;;;;;;;;;;;;-140.72;0.00;52534.94;4991435;28;19918;-74
2023/07/03 05:10:53;;;;;;;;;;;;;;;-140.72;0.00;52508.56;4974387;28;19965;-74
2023/07/03 05:13:19;;;;;;;;;;;;;;;-140.72;0.00;52532.91;4980511;28;20028;-72
2023/07/03 05:15:44;;;;;;;;;;;;;;;-140.72;0.00;52563.34;4966747;28;19965;-74
2023/07/03 05:18:09;;;;;;;;;;;;;;;-140.72;0.00;52500.44;4993547;28;20415;-74
2023/07/03 05:20:37;;;;;;;;;;;;;;;-140.72;0.00;52520.72;4986262;28;20430;-74
2023/07/03 05:23:03;;;;;;;;;;;;;;;-140.72;0.00;52524.78;4983408;28;19918;-73
2023/07/03 05:25:28;;;;;;;;;;;;;;;-140.72;0.00;52488.25;4994025;28;19922;-74
2023/07/03 05:27:54;;;;;;;;;;;;;;;-140.72;0.00;52516.66;4977698;28;20352;-73
2023/07/03 05:30:19;;;;;;;;;;;;;;;-140.72;0.00;52536.97;4995547;28;19922;-73
2023/07/03 05:32:44;;;;;;;;;;;;;;;-140.72;0.00;52516.66;4962374;28;20008;-73
2023/07/03 05:35:11;;;;;;;;;;;;;;;-140.72;0.00;52536.97;4992584;28;20744;-73
2023/07/03 05:37:37;;;;;;;;;;;;;;;-140.72;0.00;52536.97;4967899;28;20364;-73
2023/07/03 05:40:05;;;;;;;;;;;;;;;-140.72;0.00;52520.72;4982232;28;19918;-73
2023/07/03 05:42:30;;;;;;;;;;;;;;;-140.72;0.00;52498.41;4977622;28;19917;-74
2023/07/03 05:44:55;;;;;;;;;;;;;;;-140.72;0.00;52528.84;4995040;28;19925;-72
2023/07/03 05:47:21;;;;;;;;;;;;;;;-140.72;0.00;52549.13;4994882;28;20432;-72
2023/07/03 05:49:53;;;;;;;;;;;;;;;-140.72;0.00;52508.56;4986578;28;19943;-71
2023/07/03 05:52:18;;;;;;;;;;;;;;;-140.72;0.00;52518.69;4975241;28;19918;-73
2023/07/03 05:54:44;;;;;;;;;;;;;;;-140.72;0.00;52496.38;4995418;28;19972;-74
2023/07/03 05:57:11;;;;;;;;;;;;;;;-140.72;0.00;52536.97;4988652;28;20268;-73
2023/07/03 05:59:37;;;;;;;;;;;;;;;-140.72;0.00;52526.81;4998482;28;19956;-71
2023/07/03 06:02:04;;;;;;;;;;;;;;;-140.72;0.00;52508.56;4999148;28;19942;-73
2023/07/03 06:04:29;;;;;;;;;;;;;;;-140.72;0.00;52476.09;5009630;28;20418;-75
2023/07/03 06:06:55;;;;;;;;;;;;;;;-140.72;0.00;52492.31;4990275;28;19921;-75
2023/07/03 06:09:21;;;;;;;;;;;;;;;-140.72;0.00;52490.28;5003083;28;20396;-75
2023/07/03 06:11:46;;;;;;;;;;;;;;;-140.72;0.00;52528.84;4985186;28;20304;-75
2023/07/03 06:14:15;;;;;;;;;;;;;;;-140.72;0.00;52512.59;5003608;28;19929;-75
2023/07/03 06:16:40;;;;;;;;;;;;;;;-140.72;0.00;52467.97;4992806;28;20421;-72
2023/07/03 06:19:05;;;;;;;;;;;;;;;-140.72;0.00;52512.59;4976879;28;19921;-77
2023/07/03 06:21:31;;;;;;;;;;;;;;;-140.72;0.00;52486.22;4991976;28;19922;-70
2023/07/03 06:23:56;;;;;;;;;;;;;;;-140.72;0.00;52512.59;5008005;28;20352;-69
2023/07/03 06:26:21;;;;;;;;;;;;;;;-140.72;0.00;52467.97;4977026;28;19922;-69
2023/07/03 06:28:47;;;;;;;;;;;;;;;-140.72;0.00;52500.44;4982241;28;19925;-69
2023/07/03 06:31:12;;;;;;;;;;;;;;;-140.72;0.00;52504.50;4994748;28;19922;-70
2023/07/03 06:33:37;;;;;;;;;;;;;;;-140.72;0.00;52459.84;4993142;28;19928;-69
2023/07/03 06:36:02;;;;;;;;;;;;;;;-140.72;0.00;52478.13;4993154;28;20348;-70
2023/07/03 06:38:28;;;;;;;;;;;;;;;-140.72;0.00;52459.84;4993907;28;20383;-69
2023/07/03 06:40:57;;;;;;;;;;;;;;;-140.72;0.00;52522.75;4986435;28;19918;-69
2023/07/03 06:43:22;;;;;;;;;;;;;;;-140.72;0.00;52449.72;4977838;28;19936;-69
2023/07/03 06:45:48;;;;;;;;;;;;;;;-140.72;0.00;52484.19;4989615;28;19918;-69
2023/07/03 06:48:13;;;;;;;;;;;;;;;-140.72;0.00;52488.25;4990090;28;19980;-69
2023/07/03 06:50:38;;;;;;;;;;;;;;;-140.72;0.00;52502.47;4985665;28;20376;-69
2023/07/03 06:53:03;;;;;;;;;;;;;;;-140.72;0.00;52492.31;4991587;28;20051;-70
2023/07/03 06:55:29;;;;;;;;;;;;;;;-140.72;0.00;52439.56;4985850;28;19938;-69
2023/07/03 06:57:54;;;;;;;;;;;;;;;-140.72;0.00;52474.06;4990321;28;19921;-69
2023/07/03 07:00:19;;;;;;;;;;;;;;;-140.72;0.00;52480.16;4985268;28;19922;-69
2023/07/03 07:02:44;;;;;;;;;;;;;;;-140.72;0.00;52484.19;4985953;28;19918;-69
2023/07/03 07:05:10;;;;;;;;;;;;;;;-140.72;0.00;52453.75;4991941;28;20036;-69
2023/07/03 07:07:35;;;;;;;;;;;;;;;-140.72;0.00;52472.03;4981016;28;19922;-69
2023/07/03 07:10:00;;;;;;;;;;;;;;;-140.72;0.00;52461.88;4991226;28;19917;-69
2023/07/03 07:12:25;;;;;;;;;;;;;;;-140.72;0.00;52472.03;4980897;28;19930;-69
2023/07/03 07:14:51;;;;;;;;;;;;;;;-140.72;0.00;52490.28;4990749;28;19917;-69
2023/07/03 07:17:16;;;;;;;;;;;;;;;-140.72;0.00;52467.97;4991439;28;19918;-69
2023/07/03 07:19:41;;;;;;;;;;;;;;;-140.72;0.00;52435.50;4991500;28;20012;-69
2023/07/03 07:22:06;;;;;;;;;;;;;;;-140.72;0.00;52482.16;4964102;28;19922;-69
2023/07/03 07:24:32;;;;;;;;;;;;;;;-140.72;0.00;52474.06;4990106;28;19918;-69
2023/07/03 07:26:59;;;;;;;;;;;;;;;-140.72;0.00;52461.88;4992521;28;19933;-69
2023/07/03 07:29:25;;;;;;;;;;;;;;;-140.72;0.00;52465.94;4981431;28;19973;-69
2023/07/03 07:31:53;;;;;;;;;;;;;;;-140.72;0.00;52465.94;4989841;28;20015;-69
2023/07/03 07:34:18;;;;;;;;;;;;;;;-140.72;0.00;52459.84;4991316;28;19985;-69
2023/07/03 07:36:44;;;;;;;;;;;;;;;-140.72;0.00;52443.63;4990789;28;19917;-69
2023/07/03 07:39:09;;;;;;;;;;;;;;;-140.72;0.00;52455.78;4990407;28;19925;-69
2023/07/03 07:41:35;;;;;;;;;;;;;;;-140.72;0.00;52453.75;4992565;28;19930;-70
2023/07/03 07:44:00;;;;;;;;;;;;;;;-140.72;0.00;52409.13;4988403;28;20008;-69
2023/07/03 07:46:28;;;;;;;;;;;;;;;-140.72;0.00;52478.13;4992762;28;19921;-69
2023/07/03 07:48:54;;;;;;;;;;;;;;;-140.72;0.00;52459.84;4990646;28;19988;-69
2023/07/03 07:51:19;;;;;;;;;;;;;;;-140.72;0.00;52423.31;4999134;28;20363;-69
2023/07/03 07:53:44;;;;;;;;;;;;;;;-140.72;0.00;52470.00;5000203;28;19971;-69
2023/07/03 07:56:10;;;;;;;;;;;;;;;-140.72;0.00;52394.91;4981982;28;20053;-69
2023/07/03 07:58:36;;;;;;;;;;;;;;;-140.72;0.00;52437.53;4975468;28;19953;-69
2023/07/03 08:01:01;;;;;;;;;;;;;;;-140.72;0.00;52455.78;4990509;28;20072;-69
2023/07/03 08:03:26;;;;;;;;;;;;;;;-140.72;0.00;52411.16;4990964;28;20375;-69
2023/07/03 08:05:55;;;;;;;;;;;;;;;-140.72;0.00;52415.22;4992395;28;19929;-69
2023/07/03 08:08:21;;;;;;;;;;;;;;;-140.72;0.00;52423.31;4991513;28;20408;-69
2023/07/03 08:10:52;;;;;;;;;;;;;;;-140.72;0.00;52437.53;4991780;28;19925;-69
2023/07/03 08:13:18;;;;;;;;;;;;;;;-140.72;0.00;52427.38;4990497;28;19917;-67
2023/07/03 08:15:44;;;;;;;;;;;;;;;-140.72;0.00;52435.50;4992193;28;19963;-69
2023/07/03 08:18:09;;;;;;;;;;;;;;;-140.72;0.00;52431.44;4991122;28;19929;-69
2023/07/03 08:20:34;;;;;;;;;;;;;;;-140.72;0.00;52435.50;4991161;28;19922;-69
2023/07/03 08:23:00;;;;;;;;;;;;;;;-140.72;0.00;52390.84;4991670;28;19960;-69
2023/07/03 08:25:25;;;;;;;;;;;;;;;-140.72;0.00;52463.91;4990794;28;19925;-69
2023/07/03 08:27:50;;;;;;;;;;;;;;;-140.72;0.00;52415.22;4989969;28;19918;-69
2023/07/03 08:30:15;;;;;;;;;;;;;;;-140.72;0.00;52403.03;4991624;28;19972;-68
2023/07/03 08:32:43;;;;;;;;;;;;;;;-140.72;0.00;52384.78;4986607;28;19957;-69
2023/07/03 08:35:08;;;;;;;;;;;;;;;-140.72;0.00;52425.34;4972053;28;19918;-69
2023/07/03 08:37:33;;;;;;;;;;;;;;;-140.72;0.00;52419.28;4988036;28;19937;-70
2023/07/03 08:39:58;;;;;;;;;;;;;;;-140.72;0.00;52415.22;4989260;28;19928;-70
2023/07/03 08:42:29;;;;;;;;;;;;;;;-140.72;0.00;52380.72;4983841;28;20012;-69
2023/07/03 08:44:56;;;;;;;;;;;;;;;-140.72;0.00;52455.78;4978563;28;20303;-70
2023/07/03 08:47:24;;;;;;;;;;;;;;;-140.72;0.00;52415.22;4983787;28;20009;-70
2023/07/03 08:49:50;;;;;;;;;;;;;;;-140.72;0.00;52443.63;4988256;28;19922;-70
2023/07/03 08:52:18;;;;;;;;;;;;;;;-140.72;0.00;52372.59;4983668;28;19924;-70
2023/07/03 08:54:43;;;;;;;;;;;;;;;-140.72;0.00;52433.47;4990927;28;19925;-70
2023/07/03 08:57:11;;;;;;;;;;;;;;;-140.72;0.00;52457.81;4991501;28;19922;-70
2023/07/03 08:59:36;;;;;;;;;;;;;;;-140.72;0.00;52449.72;4980875;28;20005;-70
2023/07/03 09:02:16;;;;;;;;;;;;;;;-140.72;0.00;52447.69;4991651;28;20366;-70
2023/07/03 09:04:52;;;;;;;;;;;;;;;-140.72;0.00;52512.59;4972087;28;19937;-71
2023/07/03 09:07:17;;;;;;;;;;;;;;;-140.72;0.00;52463.91;4982066;28;19918;-71
2023/07/03 09:09:47;;;;;;;;;;;;;;;-140.72;0.00;52467.97;4975058;28;19925;-70
2023/07/03 09:12:31;;;;;;;;;;;;;;;-140.72;0.00;52526.81;4991699;28;20291;-70
2023/07/03 09:15:04;;;;;;;;;;;;;;;-140.72;0.00;52484.19;4991171;28;19921;-71
2023/07/03 09:17:30;;;;;;;;;;;;;;;-140.72;0.00;52488.25;4990768;28;19976;-70
2023/07/03 09:19:56;;;;;;;;;;;;;;;-140.72;0.00;52510.59;4990049;28;19918;-71
2023/07/03 09:22:29;;;;;;;;;;;;;;;-140.72;0.00;52494.34;4991148;28;19922;-70
2023/07/03 09:24:56;;;;;;;;;;;;;;;-140.72;0.00;52451.72;4984222;28;19918;-70
2023/07/03 09:27:24;;;;;;;;;;;;;;;-140.72;0.00;52447.69;4994097;28;19968;-70
2023/07/03 09:29:49;;;;;;;;;;;;;;;-140.72;0.00;52403.03;4993200;28;19969;-71
2023/07/03 09:32:28;;;;;;;;;;;;;;;-140.72;0.00;52362.44;4993005;28;19956;-71
2023/07/03 09:35:05;;;;;;;;;;;;;;;-140.72;0.00;52370.56;4993031;28;19922;-70
2023/07/03 09:37:32;;;;;;;;;;;;;;;-140.72;0.00;52358.41;4992933;28;19957;-70
2023/07/03 09:39:57;;;;;;;;;;;;;;;-140.72;0.00;52297.53;4991360;28;20028;-70
2023/07/03 09:42:23;;;;;;;;;;;;;;;-140.72;0.00;52281.28;4979446;28;19960;-70
2023/07/03 09:44:48;;;;;;;;;;;;;;;-140.72;0.00;52228.53;4995649;28;20406;-71
2023/07/03 09:47:19;;;;;;;;;;;;;;;-140.72;0.00;52293.47;4996580;28;20406;-71
2023/07/03 09:49:44;;;;;;;;;;;;;;;-140.72;0.00;52327.97;4991730;28;20009;-68
2023/07/03 09:52:09;;;;;;;;;;;;;;;-140.72;0.00;52344.19;4994673;28;19952;-71
2023/07/03 09:54:41;;;;;;;;;;;;;;;-140.72;0.00;52390.84;4994315;28;19961;-70
2023/07/03 09:57:17;;;;;;;;;;;;;;;-140.72;0.00;52394.91;4990298;28;19918;-70
2023/07/03 09:59:42;;;;;;;;;;;;;;;-140.72;0.00;52421.28;4979882;28;20240;-70
2023/07/03 10:02:07;;;;;;;;;;;;;;;-140.72;0.00;52346.22;4985417;28;20056;-70
2023/07/03 10:04:41;;;;;;;;;;;;;;;-140.72;0.00;52362.44;4992945;28;19961;-71
2023/07/03 10:07:07;;;;;;;;;;;;;;;-140.72;0.00;52413.19;4983082;28;20345;-70
2023/07/03 10:09:34;;;;;;;;;;;;;;;-140.72;0.00;52370.56;4988873;28;19937;-71
2023/07/03 10:12:09;;;;;;;;;;;;;;;-140.72;0.00;52394.91;4994054;28;20380;-70
2023/07/03 10:14:54;;;;;;;;;;;;;;;-140.72;0.00;52421.28;4990187;28;20009;-70
2023/07/03 10:17:24;;;;;;;;;;;;;;;-140.72;0.00;52427.38;4988235;28;19969;-71
2023/07/03 10:19:53;;;;;;;;;;;;;;;-140.72;0.00;52401.00;4991913;28;20005;-71
2023/07/03 10:22:19;;;;;;;;;;;;;;;-140.72;0.00;52415.22;4990525;28;20009;-71
2023/07/03 10:24:45;;;;;;;;;;;;;;;-140.72;0.00;52459.84;4981851;28;19922;-71
2023/07/03 10:27:13;;;;;;;;;;;;;;;-140.72;0.00;52453.75;4992682;28;20295;-71
2023/07/03 10:29:41;;;;;;;;;;;;;;;-140.72;0.00;52455.78;4975643;28;19921;-70
2023/07/03 10:32:07;;;;;;;;;;;;;;;-140.72;0.00;52459.84;4992363;28;19918;-71
2023/07/03 10:34:32;;;;;;;;;;;;;;;-140.72;0.00;52455.78;4982410;28;19925;-71
2023/07/03 10:37:00;;;;;;;;;;;;;;;-140.72;0.00;52431.44;4990238;28;19917;-70
2023/07/03 10:39:45;;;;;;;;;;;;;;;-140.72;0.00;52354.34;4992646;28;19925;-70
2023/07/03 10:42:17;;;;;;;;;;;;;;;-140.72;0.00;52256.94;4976111;28;20397;-70
2023/07/03 10:44:45;;;;;;;;;;;;;;;-140.72;0.00;52232.59;4990520;28;19918;-71
2023/07/03 10:47:19;;;;;;;;;;;;;;;-140.72;0.00;52224.47;4989541;28;19985;-70
2023/07/03 10:49:45;;;;;;;;;;;;;;;-140.72;0.00;52273.19;4974138;28;19972;-69
2023/07/03 10:52:19;;;;;;;;;;;;;;;-140.72;0.00;52173.75;4973242;28;19981;-69
2023/07/03 10:54:44;;;;;;;;;;;;;;;-140.72;0.00;52206.22;4977808;28;19926;-69
2023/07/03 10:57:16;;;;;;;;;;;;;;;-140.72;0.00;52196.06;4987655;28;19928;-69
2023/07/03 10:59:44;;;;;;;;;;;;;;;-140.72;0.00;52303.59;4992737;28;20043;-70
2023/07/03 11:02:12;;;;;;;;;;;;;;;-140.72;0.00;52350.28;4993114;28;19929;-70
2023/07/03 11:04:56;;;;;;;;;;;;;;;-140.72;0.00;52338.09;4991864;28;20395;-70
2023/07/03 11:07:23;;;;;;;;;;;;;;;-140.72;0.00;52368.53;4973982;28;19924;-70
2023/07/03 11:10:00;;;;;;;;;;;;;;;-140.72;0.00;52401.00;4986159;28;19926;-70
2023/07/03 11:12:43;;;;;;;;;;;;;;;-140.72;0.00;52415.22;4985337;28;19917;-70
2023/07/03 11:15:22;;;;;;;;;;;;;;;-140.72;0.00;52380.72;4980982;28;20454;-69
2023/07/03 11:18:06;;;;;;;;;;;;;;;-140.72;0.00;52254.91;4979030;28;19917;-69
2023/07/03 11:20:35;;;;;;;;;;;;;;;-140.72;0.00;52161.56;4974523;28;19918;-70
2023/07/03 11:23:12;;;;;;;;;;;;;;;-140.72;0.00;52100.72;4976489;28;20422;-70
2023/07/03 11:25:45;;;;;;;;;;;;;;;-140.72;0.00;52086.50;4991488;28;19921;-70
2023/07/03 11:28:25;;;;;;;;;;;;;;;-140.72;0.00;52171.72;4983260;28;19918;-70
2023/07/03 11:30:50;;;;;;;;;;;;;;;-140.72;0.00;52192.00;4990945;28;19918;-69
2023/07/03 11:33:16;;;;;;;;;;;;;;;-140.72;0.00;52143.31;4985774;28;20281;-71
2023/07/03 11:35:51;;;;;;;;;;;;;;;-140.72;0.00;52045.94;4982518;28;20253;-70
2023/07/03 11:38:18;;;;;;;;;;;;;;;-140.72;0.00;52082.44;4982877;28;19918;-69
2023/07/03 11:40:55;;;;;;;;;;;;;;;-140.72;0.00;52263.03;4981122;28;20424;-69
2023/07/03 11:43:33;;;;;;;;;;;;;;;-140.72;0.00;52139.25;4992329;28;19972;-69
2023/07/03 11:45:58;;;;;;;;;;;;;;;-140.72;0.00;52248.81;4979613;28;19964;-69
2023/07/03 11:48:27;;;;;;;;;;;;;;;-140.72;0.00;52291.44;4974200;28;20016;-69
2023/07/03 11:50:54;;;;;;;;;;;;;;;-140.72;0.00;52250.84;4991940;28;19940;-69
2023/07/03 11:53:34;;;;;;;;;;;;;;;-140.72;0.00;52344.19;4980422;28;20021;-69
2023/07/03 11:56:00;;;;;;;;;;;;;;;-140.72;0.00;52346.22;4968914;28;19976;-69
2023/07/03 11:58:29;;;;;;;;;;;;;;;-140.72;0.00;52356.38;4985640;28;20016;-69
2023/07/03 12:01:13;;;;;;;;;;;;;;;-140.72;0.00;52350.28;4991339;28;19933;-69
2023/07/03 12:03:48;;;;;;;;;;;;;;;-140.72;0.00;52348.25;4990936;28;20020;-69
2023/07/03 12:06:34;;;;;;;;;;;;;;;-140.72;0.00;52417.25;4990236;28;19918;-69
2023/07/03 12:09:20;;;;;;;;;;;;;;;-140.72;0.00;52394.91;4981743;28;19922;-69
2023/07/03 12:12:00;;;;;;;;;;;;;;;-140.72;0.00;52388.84;4985159;28;20296;-71
2023/07/03 12:15:02;;;;;;;;;;;;;;;-140.72;0.00;52388.84;4984791;28;19918;-69
2023/07/03 12:17:29;;;;;;;;;;;;;;;-140.72;0.00;52356.38;4975060;28;19918;-70
2023/07/03 12:19:56;;;;;;;;;;;;;;;-140.72;0.00;52370.56;4991451;28;20320;-69
2023/07/03 12:22:25;;;;;;;;;;;;;;;-140.72;0.00;52194.03;4992096;28;19918;-69
2023/07/03 12:25:05;;;;;;;;;;;;;;;-140.72;0.00;52226.50;4991932;28;19918;-69
2023/07/03 12:27:31;;;;;;;;;;;;;;;-140.72;0.00;52334.03;4987566;28;20013;-69
2023/07/03 12:29:56;;;;;;;;;;;;;;;-140.72;0.00;52305.63;4989753;28;20380;-69
2023/07/03 12:32:23;;;;;;;;;;;;;;;-140.72;0.00;52327.97;4989527;28;20052;-69
2023/07/03 12:34:49;;;;;;;;;;;;;;;-140.72;0.00;52334.03;4991335;28;19972;-69